sensor_id;sensor_type;location;lat;lon;timestamp;P1;durP1;ratioP1;P2;durP2;ratioP2
39524;SDS011;25203;50.754;6.978;2022-09-29T00:00:32;4.55;;;3.38;;
39524;SDS011;25203;50.754;6.978;2022-09-29T00:02:34;4.18;;;3.35;;
39524;SDS011;25203;50.754;6.978;2022-09-29T00:04:34;5.35;;;3.15;;
39524;SDS011;25203;50.754;6.978;2022-09-29T00:06:35;5.65;;;3.50;;
39524;SDS011;25203;50.754;6.978;2022-09-29T00:08:35;6.38;;;3.17;;
39524;SDS011;25203;50.754;6.978;2022-09-29T00:10:38;5.07;;;3.72;;
39524;SDS011;25203;50.754;6.978;2022-09-29T00:12:40;4.20;;;3.45;;
39524;SDS011;25203;50.754;6.978;2022-09-29T00:14:40;5.45;;;3.00;;
39524;SDS011;25203;50.754;6.978;2022-09-29T00:16:41;4.85;;;3.15;;
39524;SDS011;25203;50.754;6.978;2022-09-29T00:18:42;6.50;;;4.30;;
39524;SDS011;25203;50.754;6.978;2022-09-29T00:20:42;6.40;;;3.63;;
39524;SDS011;25203;50.754;6.978;2022-09-29T00:22:43;6.53;;;4.10;;
39524;SDS011;25203;50.754;6.978;2022-09-29T00:24:45;5.15;;;3.22;;
39524;SDS011;25203;50.754;6.978;2022-09-29T00:26:46;3.78;;;3.40;;
39524;SDS011;25203;50.754;6.978;2022-09-29T00:28:47;4.50;;;3.78;;
39524;SDS011;25203;50.754;6.978;2022-09-29T00:30:59;5.55;;;4.10;;
39524;SDS011;25203;50.754;6.978;2022-09-29T00:33:00;5.72;;;4.15;;
39524;SDS011;25203;50.754;6.978;2022-09-29T00:35:01;10.40;;;4.03;;
39524;SDS011;25203;50.754;6.978;2022-09-29T00:37:02;6.63;;;3.97;;
39524;SDS011;25203;50.754;6.978;2022-09-29T00:39:03;6.10;;;3.97;;
39524;SDS011;25203;50.754;6.978;2022-09-29T00:41:04;3.53;;;3.20;;
39524;SDS011;25203;50.754;6.978;2022-09-29T00:43:07;4.15;;;3.75;;
39524;SDS011;25203;50.754;6.978;2022-09-29T00:45:18;12.52;;;4.03;;
39524;SDS011;25203;50.754;6.978;2022-09-29T00:47:21;6.27;;;3.80;;
39524;SDS011;25203;50.754;6.978;2022-09-29T00:51:37;7.45;;;4.13;;
39524;SDS011;25203;50.754;6.978;2022-09-29T00:53:42;5.30;;;4.22;;
39524;SDS011;25203;50.754;6.978;2022-09-29T00:55:45;6.13;;;4.60;;
39524;SDS011;25203;50.754;6.978;2022-09-29T00:58:06;4.38;;;3.97;;
39524;SDS011;25203;50.754;6.978;2022-09-29T01:00:11;4.13;;;3.75;;
39524;SDS011;25203;50.754;6.978;2022-09-29T01:02:13;4.88;;;3.85;;
39524;SDS011;25203;50.754;6.978;2022-09-29T01:04:16;5.97;;;3.70;;
39524;SDS011;25203;50.754;6.978;2022-09-29T01:06:19;6.05;;;3.80;;
39524;SDS011;25203;50.754;6.978;2022-09-29T01:08:38;3.97;;;3.58;;
39524;SDS011;25203;50.754;6.978;2022-09-29T01:10:43;6.65;;;4.90;;
39524;SDS011;25203;50.754;6.978;2022-09-29T01:12:46;10.90;;;5.05;;
39524;SDS011;25203;50.754;6.978;2022-09-29T01:14:47;6.60;;;5.18;;
39524;SDS011;25203;50.754;6.978;2022-09-29T01:16:48;6.20;;;5.25;;
39524;SDS011;25203;50.754;6.978;2022-09-29T01:18:49;10.25;;;5.78;;
39524;SDS011;25203;50.754;6.978;2022-09-29T01:39:58;5.97;;;5.38;;
39524;SDS011;25203;50.754;6.978;2022-09-29T01:44:28;8.35;;;5.70;;
39524;SDS011;25203;50.754;6.978;2022-09-29T01:46:37;6.00;;;5.32;;
39524;SDS011;25203;50.754;6.978;2022-09-29T01:48:45;8.57;;;5.82;;
39524;SDS011;25203;50.754;6.978;2022-09-29T01:50:51;5.90;;;5.28;;
39524;SDS011;25203;50.754;6.978;2022-09-29T01:52:57;8.13;;;5.03;;
39524;SDS011;25203;50.754;6.978;2022-09-29T01:55:03;9.32;;;5.20;;
39524;SDS011;25203;50.754;6.978;2022-09-29T01:57:14;7.07;;;5.45;;
39524;SDS011;25203;50.754;6.978;2022-09-29T01:59:36;6.28;;;5.07;;
39524;SDS011;25203;50.754;6.978;2022-09-29T02:01:45;5.80;;;4.50;;
39524;SDS011;25203;50.754;6.978;2022-09-29T02:03:53;6.20;;;4.90;;
39524;SDS011;25203;50.754;6.978;2022-09-29T02:06:21;8.10;;;4.47;;
39524;SDS011;25203;50.754;6.978;2022-09-29T02:08:28;6.40;;;5.80;;
39524;SDS011;25203;50.754;6.978;2022-09-29T02:10:44;6.97;;;5.43;;
39524;SDS011;25203;50.754;6.978;2022-09-29T02:12:50;5.90;;;5.28;;
39524;SDS011;25203;50.754;6.978;2022-09-29T02:14:53;4.90;;;4.40;;
39524;SDS011;25203;50.754;6.978;2022-09-29T02:16:58;6.60;;;5.20;;
39524;SDS011;25203;50.754;6.978;2022-09-29T02:19:06;8.57;;;4.53;;
39524;SDS011;25203;50.754;6.978;2022-09-29T02:21:14;4.55;;;4.15;;
39524;SDS011;25203;50.754;6.978;2022-09-29T02:23:15;6.22;;;3.83;;
39524;SDS011;25203;50.754;6.978;2022-09-29T02:25:16;5.43;;;4.85;;
39524;SDS011;25203;50.754;6.978;2022-09-29T02:27:18;5.07;;;4.47;;
39524;SDS011;25203;50.754;6.978;2022-09-29T02:29:20;8.05;;;4.50;;
39524;SDS011;25203;50.754;6.978;2022-09-29T02:31:21;5.43;;;4.93;;
39524;SDS011;25203;50.754;6.978;2022-09-29T02:33:24;8.10;;;5.82;;
39524;SDS011;25203;50.754;6.978;2022-09-29T02:35:27;5.22;;;4.72;;
39524;SDS011;25203;50.754;6.978;2022-09-29T02:38:03;5.55;;;4.97;;
39524;SDS011;25203;50.754;6.978;2022-09-29T02:42:31;6.18;;;5.50;;
39524;SDS011;25203;50.754;6.978;2022-09-29T02:51:46;7.00;;;4.82;;
39524;SDS011;25203;50.754;6.978;2022-09-29T02:54:08;10.68;;;5.78;;
39524;SDS011;25203;50.754;6.978;2022-09-29T02:56:27;5.88;;;5.28;;
39524;SDS011;25203;50.754;6.978;2022-09-29T02:58:37;9.60;;;5.85;;
39524;SDS011;25203;50.754;6.978;2022-09-29T03:00:38;5.22;;;4.75;;
39524;SDS011;25203;50.754;6.978;2022-09-29T03:02:41;7.25;;;5.25;;
39524;SDS011;25203;50.754;6.978;2022-09-29T03:04:42;7.82;;;4.72;;
39524;SDS011;25203;50.754;6.978;2022-09-29T03:06:43;9.95;;;6.43;;
39524;SDS011;25203;50.754;6.978;2022-09-29T03:08:43;6.10;;;5.50;;
39524;SDS011;25203;50.754;6.978;2022-09-29T03:10:44;7.32;;;5.60;;
39524;SDS011;25203;50.754;6.978;2022-09-29T03:12:45;7.95;;;5.55;;
39524;SDS011;25203;50.754;6.978;2022-09-29T03:14:46;5.80;;;5.20;;
39524;SDS011;25203;50.754;6.978;2022-09-29T03:16:46;8.27;;;6.13;;
39524;SDS011;25203;50.754;6.978;2022-09-29T03:18:47;6.18;;;4.63;;
39524;SDS011;25203;50.754;6.978;2022-09-29T03:20:48;9.02;;;6.18;;
39524;SDS011;25203;50.754;6.978;2022-09-29T03:22:48;10.07;;;5.43;;
39524;SDS011;25203;50.754;6.978;2022-09-29T03:24:51;7.78;;;5.47;;
39524;SDS011;25203;50.754;6.978;2022-09-29T03:26:51;8.48;;;5.93;;
39524;SDS011;25203;50.754;6.978;2022-09-29T03:28:52;9.00;;;6.40;;
39524;SDS011;25203;50.754;6.978;2022-09-29T03:30:53;6.57;;;5.10;;
39524;SDS011;25203;50.754;6.978;2022-09-29T03:32:54;8.55;;;5.65;;
39524;SDS011;25203;50.754;6.978;2022-09-29T03:34:55;6.35;;;5.03;;
39524;SDS011;25203;50.754;6.978;2022-09-29T03:36:55;8.60;;;5.78;;
39524;SDS011;25203;50.754;6.978;2022-09-29T03:38:56;8.40;;;6.93;;
39524;SDS011;25203;50.754;6.978;2022-09-29T03:40:57;18.70;;;7.55;;
39524;SDS011;25203;50.754;6.978;2022-09-29T03:42:58;11.38;;;6.90;;
39524;SDS011;25203;50.754;6.978;2022-09-29T03:44:58;8.65;;;6.50;;
39524;SDS011;25203;50.754;6.978;2022-09-29T03:46:59;7.95;;;6.57;;
39524;SDS011;25203;50.754;6.978;2022-09-29T03:49:00;8.82;;;6.50;;
39524;SDS011;25203;50.754;6.978;2022-09-29T03:51:00;10.43;;;6.88;;
39524;SDS011;25203;50.754;6.978;2022-09-29T03:53:01;17.67;;;8.93;;
39524;SDS011;25203;50.754;6.978;2022-09-29T03:55:02;9.77;;;7.43;;
39524;SDS011;25203;50.754;6.978;2022-09-29T03:57:02;16.35;;;8.20;;
39524;SDS011;25203;50.754;6.978;2022-09-29T03:59:04;9.98;;;7.75;;
39524;SDS011;25203;50.754;6.978;2022-09-29T04:01:07;10.82;;;7.53;;
39524;SDS011;25203;50.754;6.978;2022-09-29T04:03:08;11.57;;;8.23;;
39524;SDS011;25203;50.754;6.978;2022-09-29T04:05:09;10.07;;;8.48;;
39524;SDS011;25203;50.754;6.978;2022-09-29T04:07:09;10.27;;;8.30;;
39524;SDS011;25203;50.754;6.978;2022-09-29T04:09:10;10.27;;;7.72;;
39524;SDS011;25203;50.754;6.978;2022-09-29T04:11:11;13.00;;;8.70;;
39524;SDS011;25203;50.754;6.978;2022-09-29T04:13:11;12.35;;;9.05;;
39524;SDS011;25203;50.754;6.978;2022-09-29T04:15:13;11.00;;;8.68;;
39524;SDS011;25203;50.754;6.978;2022-09-29T04:17:13;16.13;;;10.60;;
39524;SDS011;25203;50.754;6.978;2022-09-29T04:19:14;12.77;;;9.98;;
39524;SDS011;25203;50.754;6.978;2022-09-29T04:21:14;17.45;;;9.68;;
39524;SDS011;25203;50.754;6.978;2022-09-29T04:23:16;9.73;;;8.25;;
39524;SDS011;25203;50.754;6.978;2022-09-29T04:25:17;11.18;;;8.10;;
39524;SDS011;25203;50.754;6.978;2022-09-29T04:27:18;13.73;;;7.95;;
39524;SDS011;25203;50.754;6.978;2022-09-29T04:29:20;10.30;;;8.48;;
39524;SDS011;25203;50.754;6.978;2022-09-29T04:31:24;16.00;;;9.45;;
39524;SDS011;25203;50.754;6.978;2022-09-29T04:33:24;12.02;;;8.50;;
39524;SDS011;25203;50.754;6.978;2022-09-29T04:35:25;11.80;;;8.40;;
39524;SDS011;25203;50.754;6.978;2022-09-29T04:37:26;14.88;;;8.68;;
39524;SDS011;25203;50.754;6.978;2022-09-29T04:39:27;11.13;;;8.07;;
39524;SDS011;25203;50.754;6.978;2022-09-29T04:41:27;15.55;;;9.02;;
39524;SDS011;25203;50.754;6.978;2022-09-29T04:43:28;12.13;;;8.60;;
39524;SDS011;25203;50.754;6.978;2022-09-29T04:45:29;11.93;;;9.13;;
39524;SDS011;25203;50.754;6.978;2022-09-29T04:47:30;12.43;;;8.55;;
39524;SDS011;25203;50.754;6.978;2022-09-29T04:49:30;10.88;;;8.95;;
39524;SDS011;25203;50.754;6.978;2022-09-29T04:51:31;11.45;;;8.13;;
39524;SDS011;25203;50.754;6.978;2022-09-29T04:53:32;12.38;;;8.80;;
39524;SDS011;25203;50.754;6.978;2022-09-29T04:55:33;12.07;;;8.77;;
39524;SDS011;25203;50.754;6.978;2022-09-29T04:57:39;10.85;;;8.30;;
39524;SDS011;25203;50.754;6.978;2022-09-29T04:59:42;11.50;;;7.75;;
39524;SDS011;25203;50.754;6.978;2022-09-29T05:01:42;10.02;;;8.13;;
39524;SDS011;25203;50.754;6.978;2022-09-29T05:03:43;19.30;;;8.65;;
39524;SDS011;25203;50.754;6.978;2022-09-29T05:05:44;10.40;;;8.63;;
39524;SDS011;25203;50.754;6.978;2022-09-29T05:07:44;13.27;;;8.88;;
39524;SDS011;25203;50.754;6.978;2022-09-29T05:09:45;13.80;;;9.05;;
39524;SDS011;25203;50.754;6.978;2022-09-29T05:11:46;14.18;;;10.73;;
39524;SDS011;25203;50.754;6.978;2022-09-29T05:13:49;13.18;;;9.57;;
39524;SDS011;25203;50.754;6.978;2022-09-29T05:15:53;14.95;;;10.52;;
39524;SDS011;25203;50.754;6.978;2022-09-29T05:17:55;16.90;;;11.13;;
39524;SDS011;25203;50.754;6.978;2022-09-29T05:20:01;13.65;;;10.30;;
39524;SDS011;25203;50.754;6.978;2022-09-29T05:22:03;16.90;;;10.43;;
39524;SDS011;25203;50.754;6.978;2022-09-29T05:24:05;15.30;;;10.88;;
39524;SDS011;25203;50.754;6.978;2022-09-29T05:26:06;17.58;;;11.43;;
39524;SDS011;25203;50.754;6.978;2022-09-29T05:28:08;13.68;;;9.68;;
39524;SDS011;25203;50.754;6.978;2022-09-29T05:30:09;13.27;;;10.32;;
39524;SDS011;25203;50.754;6.978;2022-09-29T05:32:10;12.88;;;10.13;;
39524;SDS011;25203;50.754;6.978;2022-09-29T05:34:11;13.70;;;8.85;;
39524;SDS011;25203;50.754;6.978;2022-09-29T05:36:14;10.18;;;8.25;;
39524;SDS011;25203;50.754;6.978;2022-09-29T05:38:15;13.98;;;7.85;;
39524;SDS011;25203;50.754;6.978;2022-09-29T05:40:16;12.60;;;8.32;;
39524;SDS011;25203;50.754;6.978;2022-09-29T05:42:18;12.40;;;8.43;;
39524;SDS011;25203;50.754;6.978;2022-09-29T05:44:19;22.42;;;9.05;;
39524;SDS011;25203;50.754;6.978;2022-09-29T05:46:20;11.30;;;7.85;;
39524;SDS011;25203;50.754;6.978;2022-09-29T05:48:21;12.80;;;9.45;;
39524;SDS011;25203;50.754;6.978;2022-09-29T05:50:22;10.20;;;7.57;;
39524;SDS011;25203;50.754;6.978;2022-09-29T05:52:23;10.85;;;8.38;;
39524;SDS011;25203;50.754;6.978;2022-09-29T05:54:23;12.75;;;8.07;;
39524;SDS011;25203;50.754;6.978;2022-09-29T05:56:26;8.80;;;7.05;;
39524;SDS011;25203;50.754;6.978;2022-09-29T05:58:27;9.68;;;6.80;;
39524;SDS011;25203;50.754;6.978;2022-09-29T06:00:27;12.13;;;7.47;;
39524;SDS011;25203;50.754;6.978;2022-09-29T06:02:30;9.15;;;6.93;;
39524;SDS011;25203;50.754;6.978;2022-09-29T06:04:31;11.48;;;7.43;;
39524;SDS011;25203;50.754;6.978;2022-09-29T06:06:32;8.15;;;6.80;;
39524;SDS011;25203;50.754;6.978;2022-09-29T06:08:35;7.97;;;7.15;;
39524;SDS011;25203;50.754;6.978;2022-09-29T06:10:36;7.43;;;6.47;;
39524;SDS011;25203;50.754;6.978;2022-09-29T06:12:37;7.43;;;6.63;;
39524;SDS011;25203;50.754;6.978;2022-09-29T06:14:37;9.27;;;6.68;;
39524;SDS011;25203;50.754;6.978;2022-09-29T06:16:38;8.63;;;6.95;;
39524;SDS011;25203;50.754;6.978;2022-09-29T06:18:39;9.80;;;7.90;;
39524;SDS011;25203;50.754;6.978;2022-09-29T06:20:40;11.10;;;6.50;;
39524;SDS011;25203;50.754;6.978;2022-09-29T06:22:40;9.38;;;7.35;;
39524;SDS011;25203;50.754;6.978;2022-09-29T06:24:41;11.70;;;6.85;;
39524;SDS011;25203;50.754;6.978;2022-09-29T06:26:41;7.85;;;6.57;;
39524;SDS011;25203;50.754;6.978;2022-09-29T06:28:42;7.85;;;6.50;;
39524;SDS011;25203;50.754;6.978;2022-09-29T06:30:43;12.40;;;6.95;;
39524;SDS011;25203;50.754;6.978;2022-09-29T06:32:43;24.85;;;6.55;;
39524;SDS011;25203;50.754;6.978;2022-09-29T06:34:45;9.90;;;6.35;;
39524;SDS011;25203;50.754;6.978;2022-09-29T06:37:07;8.27;;;6.50;;
39524;SDS011;25203;50.754;6.978;2022-09-29T06:39:27;7.57;;;6.32;;
39524;SDS011;25203;50.754;6.978;2022-09-29T06:41:35;8.82;;;7.05;;
39524;SDS011;25203;50.754;6.978;2022-09-29T06:43:36;8.50;;;6.80;;
39524;SDS011;25203;50.754;6.978;2022-09-29T06:45:37;9.75;;;7.15;;
39524;SDS011;25203;50.754;6.978;2022-09-29T06:47:39;13.45;;;6.68;;
39524;SDS011;25203;50.754;6.978;2022-09-29T06:49:40;8.30;;;6.18;;
39524;SDS011;25203;50.754;6.978;2022-09-29T06:51:42;7.38;;;6.22;;
39524;SDS011;25203;50.754;6.978;2022-09-29T06:53:45;12.55;;;6.28;;
39524;SDS011;25203;50.754;6.978;2022-09-29T06:58:02;9.27;;;7.07;;
39524;SDS011;25203;50.754;6.978;2022-09-29T07:00:03;8.40;;;6.70;;
39524;SDS011;25203;50.754;6.978;2022-09-29T07:02:05;7.38;;;6.35;;
39524;SDS011;25203;50.754;6.978;2022-09-29T07:04:08;10.40;;;7.13;;
39524;SDS011;25203;50.754;6.978;2022-09-29T07:06:09;7.93;;;5.70;;
39524;SDS011;25203;50.754;6.978;2022-09-29T07:08:10;6.80;;;5.68;;
39524;SDS011;25203;50.754;6.978;2022-09-29T07:10:11;6.05;;;5.45;;
39524;SDS011;25203;50.754;6.978;2022-09-29T07:12:12;5.93;;;4.78;;
39524;SDS011;25203;50.754;6.978;2022-09-29T07:14:13;8.27;;;5.07;;
39524;SDS011;25203;50.754;6.978;2022-09-29T07:16:15;6.75;;;5.10;;
39524;SDS011;25203;50.754;6.978;2022-09-29T07:18:16;5.05;;;4.55;;
39524;SDS011;25203;50.754;6.978;2022-09-29T07:20:16;10.50;;;5.00;;
39524;SDS011;25203;50.754;6.978;2022-09-29T07:22:17;9.95;;;5.22;;
39524;SDS011;25203;50.754;6.978;2022-09-29T07:24:17;11.02;;;5.63;;
39524;SDS011;25203;50.754;6.978;2022-09-29T07:26:18;7.88;;;6.28;;
39524;SDS011;25203;50.754;6.978;2022-09-29T07:28:19;4.40;;;3.60;;
39524;SDS011;25203;50.754;6.978;2022-09-29T07:30:19;7.68;;;2.45;;
39524;SDS011;25203;50.754;6.978;2022-09-29T07:32:20;3.90;;;1.83;;
39524;SDS011;25203;50.754;6.978;2022-09-29T07:34:21;3.70;;;2.08;;
39524;SDS011;25203;50.754;6.978;2022-09-29T07:36:21;1.75;;;1.23;;
39524;SDS011;25203;50.754;6.978;2022-09-29T07:38:22;2.55;;;1.73;;
39524;SDS011;25203;50.754;6.978;2022-09-29T07:40:23;1.80;;;1.52;;
39524;SDS011;25203;50.754;6.978;2022-09-29T07:42:24;2.63;;;1.50;;
39524;SDS011;25203;50.754;6.978;2022-09-29T07:44:26;3.17;;;1.42;;
39524;SDS011;25203;50.754;6.978;2022-09-29T07:46:28;46.42;;;3.85;;
39524;SDS011;25203;50.754;6.978;2022-09-29T07:48:30;7.53;;;1.90;;
39524;SDS011;25203;50.754;6.978;2022-09-29T07:50:31;3.95;;;1.85;;
39524;SDS011;25203;50.754;6.978;2022-09-29T07:52:31;4.63;;;1.80;;
39524;SDS011;25203;50.754;6.978;2022-09-29T07:54:32;2.88;;;1.65;;
39524;SDS011;25203;50.754;6.978;2022-09-29T07:56:33;2.90;;;1.60;;
39524;SDS011;25203;50.754;6.978;2022-09-29T07:58:34;4.43;;;2.15;;
39524;SDS011;25203;50.754;6.978;2022-09-29T08:00:36;3.00;;;2.03;;
39524;SDS011;25203;50.754;6.978;2022-09-29T08:02:37;2.60;;;1.85;;
39524;SDS011;25203;50.754;6.978;2022-09-29T08:04:37;3.75;;;1.50;;
39524;SDS011;25203;50.754;6.978;2022-09-29T08:06:38;2.00;;;1.50;;
39524;SDS011;25203;50.754;6.978;2022-09-29T08:08:40;4.60;;;1.80;;
39524;SDS011;25203;50.754;6.978;2022-09-29T08:10:41;2.80;;;2.00;;
39524;SDS011;25203;50.754;6.978;2022-09-29T08:12:42;3.63;;;1.70;;
39524;SDS011;25203;50.754;6.978;2022-09-29T08:14:43;3.08;;;1.75;;
39524;SDS011;25203;50.754;6.978;2022-09-29T08:16:43;2.45;;;1.50;;
39524;SDS011;25203;50.754;6.978;2022-09-29T08:18:44;5.40;;;1.85;;
39524;SDS011;25203;50.754;6.978;2022-09-29T08:20:46;2.03;;;1.67;;
39524;SDS011;25203;50.754;6.978;2022-09-29T08:22:47;2.58;;;1.60;;
39524;SDS011;25203;50.754;6.978;2022-09-29T08:24:47;3.45;;;1.58;;
39524;SDS011;25203;50.754;6.978;2022-09-29T08:26:48;2.08;;;1.55;;
39524;SDS011;25203;50.754;6.978;2022-09-29T08:28:49;1.65;;;1.52;;
39524;SDS011;25203;50.754;6.978;2022-09-29T08:30:50;5.43;;;1.77;;
39524;SDS011;25203;50.754;6.978;2022-09-29T08:32:51;2.95;;;1.55;;
39524;SDS011;25203;50.754;6.978;2022-09-29T08:34:52;2.28;;;1.70;;
39524;SDS011;25203;50.754;6.978;2022-09-29T08:36:53;2.25;;;1.83;;
39524;SDS011;25203;50.754;6.978;2022-09-29T08:38:55;2.15;;;1.67;;
39524;SDS011;25203;50.754;6.978;2022-09-29T08:40:56;4.05;;;1.77;;
39524;SDS011;25203;50.754;6.978;2022-09-29T08:43:07;3.05;;;1.50;;
39524;SDS011;25203;50.754;6.978;2022-09-29T08:45:31;2.90;;;2.00;;
39524;SDS011;25203;50.754;6.978;2022-09-29T08:47:37;4.75;;;2.15;;
39524;SDS011;25203;50.754;6.978;2022-09-29T08:49:42;2.42;;;1.70;;
39524;SDS011;25203;50.754;6.978;2022-09-29T08:51:48;3.05;;;1.65;;
39524;SDS011;25203;50.754;6.978;2022-09-29T08:53:52;4.05;;;1.95;;
39524;SDS011;25203;50.754;6.978;2022-09-29T08:55:57;2.67;;;1.85;;
39524;SDS011;25203;50.754;6.978;2022-09-29T08:58:04;3.80;;;1.88;;
39524;SDS011;25203;50.754;6.978;2022-09-29T09:00:13;5.03;;;2.17;;
39524;SDS011;25203;50.754;6.978;2022-09-29T09:06:56;2.72;;;2.03;;
39524;SDS011;25203;50.754;6.978;2022-09-29T09:09:06;2.08;;;1.85;;
39524;SDS011;25203;50.754;6.978;2022-09-29T09:13:47;2.25;;;2.05;;
39524;SDS011;25203;50.754;6.978;2022-09-29T09:16:05;2.55;;;2.05;;
39524;SDS011;25203;50.754;6.978;2022-09-29T09:20:47;3.97;;;2.50;;
39524;SDS011;25203;50.754;6.978;2022-09-29T09:22:58;3.75;;;2.20;;
39524;SDS011;25203;50.754;6.978;2022-09-29T09:25:22;4.35;;;2.50;;
39524;SDS011;25203;50.754;6.978;2022-09-29T09:27:43;2.05;;;1.75;;
39524;SDS011;25203;50.754;6.978;2022-09-29T09:29:48;3.33;;;2.05;;
39524;SDS011;25203;50.754;6.978;2022-09-29T09:32:26;5.18;;;2.10;;
39524;SDS011;25203;50.754;6.978;2022-09-29T09:36:41;4.35;;;1.70;;
39524;SDS011;25203;50.754;6.978;2022-09-29T09:38:52;5.45;;;1.80;;
39524;SDS011;25203;50.754;6.978;2022-09-29T09:41:16;4.28;;;2.20;;
39524;SDS011;25203;50.754;6.978;2022-09-29T09:43:21;3.50;;;2.47;;
39524;SDS011;25203;50.754;6.978;2022-09-29T09:45:28;2.58;;;1.90;;
39524;SDS011;25203;50.754;6.978;2022-09-29T09:47:37;3.13;;;2.22;;
39524;SDS011;25203;50.754;6.978;2022-09-29T09:49:43;2.20;;;2.00;;
39524;SDS011;25203;50.754;6.978;2022-09-29T09:51:53;4.53;;;2.30;;
39524;SDS011;25203;50.754;6.978;2022-09-29T09:53:59;2.78;;;1.98;;
39524;SDS011;25203;50.754;6.978;2022-09-29T09:58:57;2.78;;;1.80;;
39524;SDS011;25203;50.754;6.978;2022-09-29T10:01:08;3.33;;;1.80;;
39524;SDS011;25203;50.754;6.978;2022-09-29T10:03:11;3.47;;;2.00;;
39524;SDS011;25203;50.754;6.978;2022-09-29T10:05:16;6.35;;;2.00;;
39524;SDS011;25203;50.754;6.978;2022-09-29T10:07:20;2.67;;;1.70;;
39524;SDS011;25203;50.754;6.978;2022-09-29T10:09:23;5.80;;;2.22;;
39524;SDS011;25203;50.754;6.978;2022-09-29T10:11:29;2.30;;;1.70;;
39524;SDS011;25203;50.754;6.978;2022-09-29T10:13:30;4.15;;;2.00;;
39524;SDS011;25203;50.754;6.978;2022-09-29T10:15:42;1.52;;;1.40;;
39524;SDS011;25203;50.754;6.978;2022-09-29T10:18:13;3.22;;;1.63;;
39524;SDS011;25203;50.754;6.978;2022-09-29T10:20:31;1.90;;;1.60;;
39524;SDS011;25203;50.754;6.978;2022-09-29T10:22:36;3.88;;;2.33;;
39524;SDS011;25203;50.754;6.978;2022-09-29T10:24:38;2.97;;;2.15;;
39524;SDS011;25203;50.754;6.978;2022-09-29T10:26:42;2.45;;;1.95;;
39524;SDS011;25203;50.754;6.978;2022-09-29T10:28:52;3.53;;;1.77;;
39524;SDS011;25203;50.754;6.978;2022-09-29T10:30:55;4.18;;;2.60;;
39524;SDS011;25203;50.754;6.978;2022-09-29T10:32:57;2.50;;;1.92;;
39524;SDS011;25203;50.754;6.978;2022-09-29T10:35:13;4.20;;;2.30;;
39524;SDS011;25203;50.754;6.978;2022-09-29T10:37:22;3.95;;;2.45;;
39524;SDS011;25203;50.754;6.978;2022-09-29T10:39:30;2.50;;;2.22;;
39524;SDS011;25203;50.754;6.978;2022-09-29T10:41:42;7.45;;;2.33;;
39524;SDS011;25203;50.754;6.978;2022-09-29T10:43:52;3.55;;;2.55;;
39524;SDS011;25203;50.754;6.978;2022-09-29T10:45:53;4.30;;;2.72;;
39524;SDS011;25203;50.754;6.978;2022-09-29T10:52:22;3.60;;;2.22;;
39524;SDS011;25203;50.754;6.978;2022-09-29T10:54:25;4.05;;;2.13;;
39524;SDS011;25203;50.754;6.978;2022-09-29T10:56:28;2.97;;;2.08;;
39524;SDS011;25203;50.754;6.978;2022-09-29T10:58:41;6.28;;;2.58;;
39524;SDS011;25203;50.754;6.978;2022-09-29T11:00:44;3.53;;;1.90;;
39524;SDS011;25203;50.754;6.978;2022-09-29T11:02:46;4.80;;;1.80;;
39524;SDS011;25203;50.754;6.978;2022-09-29T11:04:48;4.53;;;2.80;;
39524;SDS011;25203;50.754;6.978;2022-09-29T11:06:49;4.05;;;3.13;;
39524;SDS011;25203;50.754;6.978;2022-09-29T11:08:54;5.95;;;3.08;;
39524;SDS011;25203;50.754;6.978;2022-09-29T11:11:03;3.72;;;2.00;;
39524;SDS011;25203;50.754;6.978;2022-09-29T11:15:24;10.75;;;2.20;;
39524;SDS011;25203;50.754;6.978;2022-09-29T11:17:28;7.05;;;2.70;;
39524;SDS011;25203;50.754;6.978;2022-09-29T11:19:38;4.82;;;2.60;;
39524;SDS011;25203;50.754;6.978;2022-09-29T11:24:10;3.75;;;2.53;;
39524;SDS011;25203;50.754;6.978;2022-09-29T11:30:52;3.13;;;2.63;;
39524;SDS011;25203;50.754;6.978;2022-09-29T11:35:33;5.47;;;2.35;;
39524;SDS011;25203;50.754;6.978;2022-09-29T11:51:06;4.60;;;3.30;;
39524;SDS011;25203;50.754;6.978;2022-09-29T11:55:42;8.20;;;3.10;;
39524;SDS011;25203;50.754;6.978;2022-09-29T12:05:32;9.80;;;2.78;;
39524;SDS011;25203;50.754;6.978;2022-09-29T12:09:54;3.55;;;1.90;;
39524;SDS011;25203;50.754;6.978;2022-09-29T12:17:11;3.92;;;1.70;;
39524;SDS011;25203;50.754;6.978;2022-09-29T12:19:15;3.38;;;1.98;;
39524;SDS011;25203;50.754;6.978;2022-09-29T12:21:23;3.92;;;1.95;;
39524;SDS011;25203;50.754;6.978;2022-09-29T12:23:30;3.42;;;1.90;;
39524;SDS011;25203;50.754;6.978;2022-09-29T12:25:36;4.53;;;1.67;;
39524;SDS011;25203;50.754;6.978;2022-09-29T12:27:41;3.90;;;1.80;;
39524;SDS011;25203;50.754;6.978;2022-09-29T12:29:50;4.82;;;1.40;;
39524;SDS011;25203;50.754;6.978;2022-09-29T12:31:56;7.53;;;2.17;;
39524;SDS011;25203;50.754;6.978;2022-09-29T12:34:03;3.00;;;1.55;;
39524;SDS011;25203;50.754;6.978;2022-09-29T12:38:43;7.60;;;1.90;;
39524;SDS011;25203;50.754;6.978;2022-09-29T12:40:58;6.53;;;2.22;;
39524;SDS011;25203;50.754;6.978;2022-09-29T12:43:15;3.28;;;1.75;;
39524;SDS011;25203;50.754;6.978;2022-09-29T12:52:23;1.80;;;1.20;;
39524;SDS011;25203;50.754;6.978;2022-09-29T13:01:23;0.88;;;0.65;;
39524;SDS011;25203;50.754;6.978;2022-09-29T13:03:41;2.20;;;0.90;;
39524;SDS011;25203;50.754;6.978;2022-09-29T13:17:33;3.58;;;1.55;;
39524;SDS011;25203;50.754;6.978;2022-09-29T13:24:29;3.22;;;1.63;;
39524;SDS011;25203;50.754;6.978;2022-09-29T13:26:38;5.20;;;1.58;;
39524;SDS011;25203;50.754;6.978;2022-09-29T13:28:53;2.17;;;1.60;;
39524;SDS011;25203;50.754;6.978;2022-09-29T13:31:00;2.97;;;1.60;;
39524;SDS011;25203;50.754;6.978;2022-09-29T13:33:08;3.45;;;1.40;;
39524;SDS011;25203;50.754;6.978;2022-09-29T13:35:15;3.05;;;1.60;;
39524;SDS011;25203;50.754;6.978;2022-09-29T13:37:19;4.10;;;2.05;;
39524;SDS011;25203;50.754;6.978;2022-09-29T13:39:22;3.22;;;1.38;;
39524;SDS011;25203;50.754;6.978;2022-09-29T13:45:48;2.38;;;1.45;;
39524;SDS011;25203;50.754;6.978;2022-09-29T13:47:50;2.58;;;1.20;;
39524;SDS011;25203;50.754;6.978;2022-09-29T13:49:52;2.05;;;1.27;;
39524;SDS011;25203;50.754;6.978;2022-09-29T13:52:29;1.35;;;1.17;;
39524;SDS011;25203;50.754;6.978;2022-09-29T13:54:39;5.60;;;1.33;;
39524;SDS011;25203;50.754;6.978;2022-09-29T13:56:45;8.23;;;1.60;;
39524;SDS011;25203;50.754;6.978;2022-09-29T14:00:48;6.30;;;1.50;;
39524;SDS011;25203;50.754;6.978;2022-09-29T14:03:00;2.67;;;1.40;;
39524;SDS011;25203;50.754;6.978;2022-09-29T14:05:03;3.13;;;1.33;;
39524;SDS011;25203;50.754;6.978;2022-09-29T14:07:06;1.75;;;1.08;;
39524;SDS011;25203;50.754;6.978;2022-09-29T14:09:16;3.00;;;1.33;;
39524;SDS011;25203;50.754;6.978;2022-09-29T14:11:38;4.75;;;1.10;;
39524;SDS011;25203;50.754;6.978;2022-09-29T14:13:44;2.05;;;1.30;;
39524;SDS011;25203;50.754;6.978;2022-09-29T14:16:02;3.67;;;1.30;;
39524;SDS011;25203;50.754;6.978;2022-09-29T14:18:06;2.10;;;1.30;;
39524;SDS011;25203;50.754;6.978;2022-09-29T14:20:21;2.45;;;1.20;;
39524;SDS011;25203;50.754;6.978;2022-09-29T14:26:43;3.83;;;1.80;;
39524;SDS011;25203;50.754;6.978;2022-09-29T14:28:48;1.55;;;1.13;;
39524;SDS011;25203;50.754;6.978;2022-09-29T14:30:53;3.83;;;1.48;;
39524;SDS011;25203;50.754;6.978;2022-09-29T14:32:57;4.13;;;1.50;;
39524;SDS011;25203;50.754;6.978;2022-09-29T14:35:01;2.50;;;1.20;;
39524;SDS011;25203;50.754;6.978;2022-09-29T14:37:05;2.83;;;1.40;;
39524;SDS011;25203;50.754;6.978;2022-09-29T14:39:12;3.10;;;1.40;;
39524;SDS011;25203;50.754;6.978;2022-09-29T14:43:41;3.10;;;1.30;;
39524;SDS011;25203;50.754;6.978;2022-09-29T14:48:18;3.45;;;1.30;;
39524;SDS011;25203;50.754;6.978;2022-09-29T14:53:43;4.50;;;0.98;;
39524;SDS011;25203;50.754;6.978;2022-09-29T14:58:20;3.90;;;1.20;;
39524;SDS011;25203;50.754;6.978;2022-09-29T15:02:49;3.00;;;1.20;;